createdAt,value
2017-07-01T00:00:34.392Z,999.83
2017-07-01T00:01:34.416Z,999.77
2017-07-01T00:02:34.439Z,999.77
2017-07-01T00:03:34.463Z,999.8
2017-07-01T00:04:34.486Z,999.8
2017-07-01T00:05:34.508Z,999.8
2017-07-01T00:06:34.532Z,999.8
2017-07-01T00:07:34.553Z,999.8
2017-07-01T00:08:34.579Z,999.78
2017-07-01T00:09:34.602Z,999.79
2017-07-01T00:10:34.628Z,999.79
2017-07-01T00:11:34.649Z,999.8
2017-07-01T00:12:34.674Z,999.85
2017-07-01T00:13:34.694Z,999.84
2017-07-01T00:14:34.724Z,999.8
2017-07-01T00:15:34.745Z,999.82
2017-07-01T00:16:34.765Z,999.76
2017-07-01T00:18:34.816Z,999.75
2017-07-01T00:19:34.842Z,999.73
2017-07-01T00:20:34.859Z,999.77
2017-07-01T00:21:34.887Z,999.8
2017-07-01T00:22:34.909Z,999.79
2017-07-01T00:23:34.934Z,999.79
2017-07-01T00:24:34.954Z,999.8
2017-07-01T00:25:34.981Z,999.77
2017-07-01T00:26:35.005Z,999.75
2017-07-01T00:27:35.031Z,999.77
2017-07-01T00:28:35.050Z,999.74
2017-07-01T00:29:35.077Z,999.76
2017-07-01T00:30:35.097Z,999.73
2017-07-01T00:31:35.122Z,999.69
2017-07-01T00:32:35.146Z,999.68
2017-07-01T00:34:35.192Z,999.7
2017-07-01T00:35:35.213Z,999.67
2017-07-01T00:36:35.242Z,999.67
2017-07-01T00:37:35.260Z,999.69
2017-07-01T00:38:35.285Z,999.73
2017-07-01T00:39:35.307Z,999.66
2017-07-01T00:40:35.336Z,999.68
2017-07-01T00:41:35.354Z,999.65
2017-07-01T00:42:35.381Z,999.65
2017-07-01T00:43:35.404Z,999.61
2017-07-01T00:44:35.426Z,999.63
2017-07-01T00:45:35.450Z,999.6
2017-07-01T00:46:35.478Z,999.64
2017-07-01T00:47:35.500Z,999.61
2017-07-01T00:48:35.518Z,999.64
2017-07-01T00:50:35.568Z,999.65
2017-07-01T00:51:35.592Z,999.64
2017-07-01T00:52:35.615Z,999.64
2017-07-01T00:53:35.641Z,999.63
2017-07-01T00:54:35.662Z,999.62
2017-07-01T00:55:35.686Z,999.63
2017-07-01T00:56:35.710Z,999.68
2017-07-01T00:57:35.733Z,999.65
2017-07-01T00:58:35.756Z,999.63
2017-07-01T00:59:35.778Z,999.61
2017-07-01T01:00:35.803Z,999.59
2017-07-01T01:01:35.828Z,999.61
2017-07-01T01:02:35.852Z,999.61
2017-07-01T01:03:35.873Z,999.58
2017-07-01T01:04:35.896Z,999.61
2017-07-01T01:06:35.943Z,999.6
2017-07-01T01:07:35.966Z,999.64
2017-07-01T01:08:35.989Z,999.64
2017-07-01T01:09:36.011Z,999.58
2017-07-01T01:10:36.039Z,999.56
2017-07-01T01:11:36.060Z,999.59
2017-07-01T01:12:36.086Z,999.55
2017-07-01T01:13:36.106Z,999.5
2017-07-01T01:14:36.132Z,999.5
2017-07-01T01:15:36.155Z,999.55
2017-07-01T01:16:36.175Z,999.51
2017-07-01T01:17:36.198Z,999.49
2017-07-01T01:18:36.225Z,999.57
2017-07-01T01:19:36.246Z,999.55
2017-07-01T01:21:36.295Z,999.55
2017-07-01T01:22:36.316Z,999.57
2017-07-01T01:23:36.341Z,999.56
2017-07-01T01:24:36.369Z,999.58
2017-07-01T01:25:36.392Z,999.55
2017-07-01T01:26:36.410Z,999.54
2017-07-01T01:27:36.433Z,999.52
2017-07-01T01:28:36.460Z,999.52
2017-07-01T01:29:36.483Z,999.54
2017-07-01T01:30:36.504Z,999.5
2017-07-01T01:31:36.528Z,999.52
2017-07-01T01:32:36.554Z,999.51
2017-07-01T01:33:36.573Z,999.51
2017-07-01T01:34:36.602Z,999.53
2017-07-01T01:35:36.661Z,999.59
2017-07-01T01:36:36.649Z,999.52
2017-07-01T01:37:36.670Z,999.53
2017-07-01T01:38:36.692Z,999.54
2017-07-01T01:39:36.717Z,999.48
2017-07-01T01:40:36.739Z,999.48
2017-07-01T01:41:36.764Z,999.51
2017-07-01T01:42:36.785Z,999.52
2017-07-01T01:43:36.810Z,999.56
2017-07-01T01:44:36.835Z,999.52
2017-07-01T01:45:36.857Z,999.53
2017-07-01T01:46:36.882Z,999.47
2017-07-01T01:47:36.905Z,999.52
2017-07-01T01:48:36.927Z,999.51
2017-07-01T01:49:36.951Z,999.5
2017-07-01T01:50:36.976Z,999.5
2017-07-01T01:51:37.000Z,999.52
2017-07-01T01:53:37.044Z,999.5
2017-07-01T01:54:37.069Z,999.49
2017-07-01T01:55:37.088Z,999.53
2017-07-01T01:56:37.116Z,999.57
2017-07-01T01:57:37.136Z,999.57
2017-07-01T01:58:37.162Z,999.56
2017-07-01T01:59:37.186Z,999.59
2017-07-01T02:00:37.209Z,999.58
2017-07-01T02:01:37.241Z,999.59
2017-07-01T02:02:37.256Z,999.59
2017-07-01T02:03:37.281Z,999.57
2017-07-01T02:04:37.303Z,999.6
2017-07-01T02:05:37.327Z,999.6
2017-07-01T02:06:37.346Z,999.61
2017-07-01T02:07:37.373Z,999.57
2017-07-01T02:09:37.421Z,999.53
2017-07-01T02:10:37.442Z,999.52
2017-07-01T02:11:37.463Z,999.54
2017-07-01T02:12:37.491Z,999.56
2017-07-01T02:13:37.511Z,999.59
2017-07-01T02:14:37.535Z,999.57
2017-07-01T02:15:37.563Z,999.61
2017-07-01T02:16:37.584Z,999.57
2017-07-01T02:17:37.608Z,999.6
2017-07-01T02:18:37.681Z,999.58
2017-07-01T02:19:37.655Z,999.59
2017-07-01T02:20:37.678Z,999.63
2017-07-01T02:21:37.701Z,999.6
2017-07-01T02:22:37.726Z,999.61
2017-07-01T02:23:37.749Z,999.58
2017-07-01T02:25:37.794Z,999.6
2017-07-01T02:26:37.819Z,999.55
2017-07-01T02:27:37.841Z,999.56
2017-07-01T02:28:37.866Z,999.57
2017-07-01T02:29:37.886Z,999.58
2017-07-01T02:30:37.911Z,999.57
2017-07-01T02:31:37.939Z,999.58
2017-07-01T02:32:37.960Z,999.6
2017-07-01T02:33:37.980Z,999.59
2017-07-01T02:34:38.004Z,999.6
2017-07-01T02:35:38.030Z,999.65
2017-07-01T02:36:38.052Z,999.65
2017-07-01T02:37:38.078Z,999.64
2017-07-01T02:38:38.100Z,999.64
2017-07-01T02:39:38.124Z,999.61
2017-07-01T02:41:38.172Z,999.64
2017-07-01T02:42:38.193Z,999.63
2017-07-01T02:43:38.214Z,999.67
2017-07-01T02:44:38.238Z,999.62
2017-07-01T02:45:38.265Z,999.64
2017-07-01T02:46:38.288Z,999.66
2017-07-01T02:47:38.313Z,999.65
2017-07-01T02:48:38.331Z,999.69
2017-07-01T02:49:38.361Z,999.69
2017-07-01T02:50:38.378Z,999.67
2017-07-01T02:51:38.403Z,999.68
2017-07-01T02:52:38.429Z,999.65
2017-07-01T02:53:38.455Z,999.66
2017-07-01T02:54:38.473Z,999.65
2017-07-01T02:56:38.520Z,999.65
2017-07-01T02:57:38.545Z,999.64
2017-07-01T02:58:38.573Z,999.66
2017-07-01T02:59:38.593Z,999.61
2017-07-01T03:00:38.617Z,999.65
2017-07-01T03:01:38.637Z,999.6
2017-07-01T03:02:38.666Z,999.59
2017-07-01T03:03:38.686Z,999.57
2017-07-01T03:04:38.710Z,999.57
2017-07-01T03:05:38.784Z,999.57
2017-07-01T03:06:38.760Z,999.54
2017-07-01T03:07:38.782Z,999.55
2017-07-01T03:08:38.805Z,999.51
2017-07-01T03:09:38.824Z,999.54
2017-07-01T03:10:38.852Z,999.59
2017-07-01T03:11:38.872Z,999.53
2017-07-01T03:12:38.899Z,999.49
2017-07-01T03:13:38.922Z,999.5
2017-07-01T03:14:38.946Z,999.46
2017-07-01T03:15:38.965Z,999.43
2017-07-01T03:16:38.993Z,999.46
2017-07-01T03:17:39.015Z,999.41
2017-07-01T03:18:39.039Z,999.45
2017-07-01T03:19:39.059Z,999.45
2017-07-01T03:20:39.082Z,999.46
2017-07-01T03:21:39.112Z,999.48
2017-07-01T03:22:39.132Z,999.49
2017-07-01T03:23:39.155Z,999.5
2017-07-01T03:24:39.178Z,999.5
2017-07-01T03:25:39.207Z,999.49
2017-07-01T03:26:39.226Z,999.45
2017-07-01T03:28:39.271Z,999.47
2017-07-01T03:29:39.300Z,999.47
2017-07-01T03:30:39.322Z,999.45
2017-07-01T03:31:39.342Z,999.47
2017-07-01T03:32:39.367Z,999.43
2017-07-01T03:33:39.393Z,999.46
2017-07-01T03:34:39.413Z,999.41
2017-07-01T03:35:39.436Z,999.4
2017-07-01T03:36:39.461Z,999.42
2017-07-01T03:37:39.486Z,999.42
2017-07-01T03:38:39.505Z,999.47
2017-07-01T03:39:39.533Z,999.43
2017-07-01T03:40:39.557Z,999.45
2017-07-01T03:41:39.579Z,999.45
2017-07-01T03:42:39.605Z,999.44
2017-07-01T03:44:39.648Z,999.44
2017-07-01T03:45:39.671Z,999.39
2017-07-01T03:46:39.697Z,999.4
2017-07-01T03:47:39.723Z,999.39
2017-07-01T03:48:39.742Z,999.37
2017-07-01T03:49:39.771Z,999.37
2017-07-01T03:50:39.788Z,999.39
2017-07-01T03:51:39.816Z,999.42
2017-07-01T03:52:39.836Z,999.41
2017-07-01T03:53:39.912Z,999.43
2017-07-01T03:54:39.883Z,999.41
2017-07-01T03:55:39.912Z,999.41
2017-07-01T03:56:39.929Z,999.41
2017-07-01T03:57:39.954Z,999.43
2017-07-01T03:58:39.980Z,999.42
2017-07-01T04:00:40.026Z,999.44
2017-07-01T04:01:40.051Z,999.46
2017-07-01T04:02:40.075Z,999.45
2017-07-01T04:03:40.099Z,999.47
2017-07-01T04:04:40.121Z,999.44
2017-07-01T04:05:40.143Z,999.48
2017-07-01T04:06:40.169Z,999.48
2017-07-01T04:07:40.188Z,999.46
2017-07-01T04:08:40.217Z,999.48
2017-07-01T04:09:40.235Z,999.52
2017-07-01T04:10:40.262Z,999.51
2017-07-01T04:11:40.286Z,999.54
2017-07-01T04:12:40.306Z,999.53
2017-07-01T04:13:40.337Z,999.54
2017-07-01T04:14:40.355Z,999.58
2017-07-01T04:16:40.400Z,999.51
2017-07-01T04:17:40.429Z,999.53
2017-07-01T04:18:40.447Z,999.48
2017-07-01T04:19:40.474Z,999.5
2017-07-01T04:20:40.497Z,999.48
2017-07-01T04:21:40.521Z,999.48
2017-07-01T04:22:40.546Z,999.51
2017-07-01T04:23:40.570Z,999.53
2017-07-01T04:24:40.594Z,999.5
2017-07-01T04:25:40.613Z,999.5
2017-07-01T04:26:40.640Z,999.48
2017-07-01T04:27:40.666Z,999.49
2017-07-01T04:28:40.685Z,999.45
2017-07-01T04:29:40.711Z,999.5
2017-07-01T04:31:40.761Z,999.47
2017-07-01T04:32:40.781Z,999.42
2017-07-01T04:33:40.808Z,999.45
2017-07-01T04:34:40.829Z,999.5
2017-07-01T04:35:40.851Z,999.45
2017-07-01T04:36:40.876Z,999.45
2017-07-01T04:37:40.897Z,999.47
2017-07-01T04:38:40.926Z,999.46
2017-07-01T04:39:40.944Z,999.46
2017-07-01T04:40:40.971Z,999.49
2017-07-01T04:41:40.991Z,999.48
2017-07-01T04:42:41.018Z,999.47
2017-07-01T04:43:41.042Z,999.46
2017-07-01T04:44:41.066Z,999.47
2017-07-01T04:45:41.088Z,999.49
2017-07-01T04:46:41.112Z,999.48
2017-07-01T04:47:41.136Z,999.47
2017-07-01T04:48:41.159Z,999.47
2017-07-01T04:49:41.184Z,999.46
2017-07-01T04:50:41.207Z,999.46
2017-07-01T04:51:41.231Z,999.48
2017-07-01T04:52:41.257Z,999.49
2017-07-01T04:53:41.278Z,999.52
2017-07-01T04:54:41.302Z,999.49
2017-07-01T04:55:41.322Z,999.49
2017-07-01T04:56:41.349Z,999.53
2017-07-01T04:57:41.373Z,999.51
2017-07-01T04:58:41.396Z,999.52
2017-07-01T04:59:41.421Z,999.54
2017-07-01T05:00:41.445Z,999.58
2017-07-01T05:01:41.467Z,999.6
2017-07-01T05:03:41.515Z,999.57
2017-07-01T05:04:41.543Z,999.57
2017-07-01T05:05:41.561Z,999.61
2017-07-01T05:06:41.585Z,999.61
2017-07-01T05:07:41.610Z,999.63
2017-07-01T05:08:41.632Z,999.64
2017-07-01T05:09:41.655Z,999.65
2017-07-01T05:10:41.680Z,999.66
2017-07-01T05:11:41.707Z,999.66
2017-07-01T05:12:41.776Z,999.69
2017-07-01T05:13:41.747Z,999.66
2017-07-01T05:14:41.774Z,999.66
2017-07-01T05:15:41.798Z,999.69
2017-07-01T05:16:41.822Z,999.75
2017-07-01T05:17:41.843Z,999.74
2017-07-01T05:19:41.895Z,999.7
2017-07-01T05:20:41.917Z,999.74
2017-07-01T05:21:41.938Z,999.75
2017-07-01T05:22:41.965Z,999.74
2017-07-01T05:23:41.989Z,999.76
2017-07-01T05:24:42.014Z,999.8
2017-07-01T05:25:42.037Z,999.74
2017-07-01T05:26:42.059Z,999.78
2017-07-01T05:27:42.080Z,999.78
2017-07-01T05:28:42.108Z,999.74
2017-07-01T05:29:42.131Z,999.7
2017-07-01T05:30:42.155Z,999.74
2017-07-01T05:31:42.180Z,999.72
2017-07-01T05:32:42.202Z,999.73
2017-07-01T05:33:42.228Z,999.74
2017-07-01T05:35:42.273Z,999.79
2017-07-01T05:36:42.294Z,999.78
2017-07-01T05:37:42.320Z,999.77
2017-07-01T05:38:42.347Z,999.78
2017-07-01T05:39:42.367Z,999.82
2017-07-01T05:40:42.441Z,999.83
2017-07-01T05:41:42.413Z,999.82
2017-07-01T05:42:42.439Z,999.86
2017-07-01T05:43:42.462Z,999.87
2017-07-01T05:44:42.488Z,999.84
2017-07-01T05:45:42.511Z,999.83
2017-07-01T05:46:42.535Z,999.81
2017-07-01T05:47:42.559Z,999.84
2017-07-01T05:48:42.583Z,999.89
2017-07-01T05:49:42.605Z,999.88
2017-07-01T05:51:42.651Z,999.89
2017-07-01T05:52:42.681Z,999.91
2017-07-01T05:53:42.698Z,999.91
2017-07-01T05:54:42.725Z,999.91
2017-07-01T05:55:42.750Z,999.97
2017-07-01T05:56:42.775Z,999.95
2017-07-01T05:57:42.794Z,999.94
2017-07-01T05:58:42.818Z,999.92
2017-07-01T05:59:42.845Z,999.95
2017-07-01T06:00:42.865Z,999.96
2017-07-01T06:01:42.894Z,999.98
2017-07-01T06:02:42.915Z,1000.03
2017-07-01T06:03:42.941Z,1000
2017-07-01T06:04:42.965Z,1000.01
2017-07-01T06:06:43.013Z,999.92
2017-07-01T06:07:43.034Z,999.96
2017-07-01T06:08:43.060Z,1000.02
2017-07-01T06:09:43.085Z,999.97
2017-07-01T06:10:43.110Z,1000
2017-07-01T06:11:43.128Z,999.97
2017-07-01T06:12:43.154Z,1000.02
2017-07-01T06:13:43.180Z,999.92
2017-07-01T06:14:43.200Z,999.9
2017-07-01T06:15:43.224Z,999.88
2017-07-01T06:16:43.255Z,999.9
2017-07-01T06:17:43.273Z,999.97
2017-07-01T06:18:43.299Z,999.94
2017-07-01T06:19:43.319Z,999.96
2017-07-01T06:20:43.347Z,999.94
2017-07-01T06:21:43.370Z,999.9
2017-07-01T06:22:43.394Z,999.88
2017-07-01T06:23:43.418Z,999.91
2017-07-01T06:24:43.444Z,999.96
2017-07-01T06:25:43.470Z,999.96
2017-07-01T06:26:43.487Z,999.89
2017-07-01T06:27:43.515Z,999.96
2017-07-01T06:28:43.538Z,999.95
2017-07-01T06:29:43.562Z,999.97
2017-07-01T06:30:43.585Z,1000.01
2017-07-01T06:31:43.607Z,999.92
2017-07-01T06:32:43.631Z,999.93
2017-07-01T06:33:43.656Z,999.97
2017-07-01T06:34:43.678Z,1000
2017-07-01T06:35:43.705Z,999.99
2017-07-01T06:36:43.728Z,1000.02
2017-07-01T06:38:43.775Z,1000.04
2017-07-01T06:39:43.798Z,1000.03
2017-07-01T06:40:43.823Z,1000.04
2017-07-01T06:41:43.844Z,1000.09
2017-07-01T06:42:43.872Z,1000.09
2017-07-01T06:43:43.896Z,1000.1
2017-07-01T06:44:43.919Z,1000.1
2017-07-01T06:45:43.943Z,1000.12
2017-07-01T06:46:43.968Z,1000.09
2017-07-01T06:47:43.990Z,1000.08
2017-07-01T06:48:44.016Z,1000.06
2017-07-01T06:49:44.039Z,1000.07
2017-07-01T06:50:44.064Z,1000.06
2017-07-01T06:51:44.091Z,1000.06
2017-07-01T06:52:44.113Z,1000.07
2017-07-01T06:54:44.158Z,1000.05
2017-07-01T06:55:44.187Z,1000.08
2017-07-01T06:56:44.209Z,1000.06
2017-07-01T06:57:44.235Z,1000.09
2017-07-01T06:58:44.255Z,1000.13
2017-07-01T06:59:44.285Z,1000.14
2017-07-01T07:00:44.306Z,1000.11
2017-07-01T07:01:44.329Z,1000.16
2017-07-01T07:02:44.353Z,1000.15
2017-07-01T07:03:44.378Z,1000.1
2017-07-01T07:04:44.410Z,1000.13
2017-07-01T07:05:44.431Z,1000.1
2017-07-01T07:06:44.458Z,1000.14
2017-07-01T07:07:44.481Z,1000.1
2017-07-01T07:08:44.505Z,1000.16
2017-07-01T07:10:44.557Z,1000.13
2017-07-01T07:11:44.582Z,1000.12
2017-07-01T07:12:44.601Z,1000.14
2017-07-01T07:13:44.627Z,1000.09
2017-07-01T07:14:44.652Z,1000.08
2017-07-01T07:15:44.676Z,1000.13
2017-07-01T07:16:44.707Z,1000.12
2017-07-01T07:17:44.727Z,1000.15
2017-07-01T07:18:44.753Z,1000.26
2017-07-01T07:19:44.780Z,1000.11
2017-07-01T07:20:44.804Z,1000.1
2017-07-01T07:21:44.829Z,1000.11
2017-07-01T07:22:44.852Z,1000.13
2017-07-01T07:23:44.883Z,1000.13
2017-07-01T07:24:44.904Z,1000.11
2017-07-01T07:26:44.957Z,1000.15
2017-07-01T07:27:44.983Z,1000.12
2017-07-01T07:28:45.005Z,1000.12
2017-07-01T07:29:45.029Z,1000.13
2017-07-01T07:30:45.060Z,1000.21
2017-07-01T07:31:45.083Z,1000.23
2017-07-01T07:32:45.109Z,1000.16
2017-07-01T07:33:45.134Z,1000.12
2017-07-01T07:34:45.154Z,1000.15
2017-07-01T07:35:45.183Z,1000.19
2017-07-01T07:36:45.209Z,1000.18
2017-07-01T07:37:45.232Z,1000.2
2017-07-01T07:38:45.262Z,1000.21
2017-07-01T07:39:45.288Z,1000.23
2017-07-01T07:41:45.334Z,1000.27
2017-07-01T07:42:45.363Z,1000.33
2017-07-01T07:43:45.383Z,1000.38
2017-07-01T07:44:45.412Z,1000.34
2017-07-01T07:45:45.437Z,1000.35
2017-07-01T07:46:45.462Z,1000.36
2017-07-01T07:47:45.490Z,1000.39
2017-07-01T07:48:45.510Z,1000.47
2017-07-01T07:49:45.538Z,1000.54
2017-07-01T07:50:45.563Z,1000.83
2017-07-01T07:51:45.589Z,1000.74
2017-07-01T07:52:45.617Z,1000.7
2017-07-01T07:53:45.643Z,1000.86
2017-07-01T07:54:45.671Z,1000.53
2017-07-01T07:55:45.694Z,1000.49
2017-07-01T07:56:45.722Z,1000.53
2017-07-01T07:57:45.753Z,1000.51
2017-07-01T07:58:45.780Z,1000.62
2017-07-01T07:59:45.807Z,1000.88
2017-07-01T08:00:45.836Z,1000.9
2017-07-01T08:01:45.864Z,1000.95
2017-07-01T08:02:45.889Z,1000.71
2017-07-01T08:03:45.918Z,1000.94
2017-07-01T08:04:45.950Z,1000.93
2017-07-01T08:05:45.976Z,1000.84
2017-07-01T08:06:46.012Z,1001.02
2017-07-01T08:07:46.036Z,1000.67
2017-07-01T08:08:46.069Z,1000.67
2017-07-01T08:09:46.093Z,1000.69
2017-07-01T08:10:46.129Z,1001.02
2017-07-01T08:11:46.159Z,1001.07
2017-07-01T08:13:46.215Z,1000.78
2017-07-01T08:14:46.245Z,1000.76
2017-07-01T08:15:46.276Z,1000.67
2017-07-01T08:16:46.303Z,1000.63
2017-07-01T08:17:46.337Z,1000.69
2017-07-01T08:18:46.370Z,1000.67
2017-07-01T08:19:46.396Z,1000.66
2017-07-01T08:20:46.426Z,1000.65
2017-07-01T08:21:46.458Z,1000.59
2017-07-01T08:22:46.484Z,1000.57
2017-07-01T08:23:46.518Z,1000.52
2017-07-01T08:24:46.547Z,1000.62
2017-07-01T08:25:46.578Z,1000.6
2017-07-01T08:26:46.604Z,1000.62
2017-07-01T08:27:46.639Z,1000.63
2017-07-01T08:29:46.697Z,1000.66
2017-07-01T08:30:46.724Z,1000.69
2017-07-01T08:31:46.754Z,1000.62
2017-07-01T08:32:46.784Z,1000.66
2017-07-01T08:33:46.810Z,1000.66
2017-07-01T08:34:46.842Z,1000.69
2017-07-01T08:35:46.872Z,1000.61
2017-07-01T08:36:46.898Z,1000.61
2017-07-01T08:37:46.929Z,1000.66
2017-07-01T08:38:46.958Z,1000.66
2017-07-01T08:39:46.988Z,1000.69
2017-07-01T08:40:47.015Z,1000.63
2017-07-01T08:41:47.044Z,1000.63
2017-07-01T08:42:47.077Z,1000.66
2017-07-01T08:43:47.102Z,1000.66
2017-07-01T08:45:47.161Z,1000.75
2017-07-01T08:46:47.189Z,1000.7
2017-07-01T08:47:47.220Z,1000.64
2017-07-01T08:48:47.245Z,1000.62
2017-07-01T08:49:47.280Z,1000.68
2017-07-01T08:50:47.305Z,1000.64
2017-07-01T08:51:47.337Z,1000.63
2017-07-01T08:52:47.363Z,1000.59
2017-07-01T08:53:47.395Z,1000.58
2017-07-01T08:54:47.420Z,1000.58
2017-07-01T08:55:47.452Z,1000.57
2017-07-01T08:56:47.481Z,1000.58
2017-07-01T08:57:47.510Z,1000.59
2017-07-01T08:58:47.540Z,1000.5
2017-07-01T08:59:47.567Z,1000.55
2017-07-01T09:01:47.627Z,1000.53
2017-07-01T09:02:47.655Z,1000.46
2017-07-01T09:03:47.681Z,1000.51
2017-07-01T09:04:47.708Z,1000.54
2017-07-01T09:05:47.739Z,1000.54
2017-07-01T09:06:47.768Z,1000.46
2017-07-01T09:07:47.794Z,1000.52
2017-07-01T09:08:47.827Z,1000.51
2017-07-01T09:09:47.851Z,1000.48
2017-07-01T09:10:47.884Z,1000.51
2017-07-01T09:11:47.909Z,1000.49
2017-07-01T09:12:47.940Z,1000.4
2017-07-01T09:13:47.971Z,1000.47
2017-07-01T09:14:48.004Z,1000.42
2017-07-01T09:16:48.059Z,1000.42
2017-07-01T09:17:48.090Z,1000.45
2017-07-01T09:18:48.115Z,1000.42
2017-07-01T09:19:48.144Z,1000.35
2017-07-01T09:20:48.179Z,1000.34
2017-07-01T09:21:48.207Z,1000.37
2017-07-01T09:22:48.234Z,1000.29
2017-07-01T09:23:48.263Z,1000.27
2017-07-01T09:24:48.292Z,1000.28
2017-07-01T09:25:48.321Z,1000.35
2017-07-01T09:26:48.347Z,1000.29
2017-07-01T09:27:48.383Z,1000.25
2017-07-01T09:28:48.406Z,1000.2
2017-07-01T09:29:48.440Z,1000.31
2017-07-01T09:30:48.463Z,1000.28
2017-07-01T09:31:48.495Z,1000.25
2017-07-01T09:32:48.525Z,1000.2
2017-07-01T09:33:48.549Z,1000.18
2017-07-01T09:34:48.583Z,1000.25
2017-07-01T09:35:48.607Z,1000.27
2017-07-01T09:36:48.633Z,1000.24
2017-07-01T09:37:48.665Z,1000.23
2017-07-01T09:38:48.698Z,1000.22
2017-07-01T09:39:48.721Z,1000.28
2017-07-01T09:40:48.750Z,1000.23
2017-07-01T09:41:48.779Z,1000.27
2017-07-01T09:42:48.808Z,1000.28
2017-07-01T09:43:48.867Z,1000.25
2017-07-01T09:44:48.861Z,1000.3
2017-07-01T09:45:48.890Z,1000.31
2017-07-01T09:46:48.918Z,1000.26
2017-07-01T09:48:48.975Z,1000.31
2017-07-01T09:49:48.998Z,1000.26
2017-07-01T09:50:49.027Z,1000.21
2017-07-01T09:51:49.052Z,1000.23
2017-07-01T09:52:49.084Z,1000.22
2017-07-01T09:53:49.109Z,1000.21
2017-07-01T09:54:49.138Z,1000.18
2017-07-01T09:55:49.164Z,1000.27
2017-07-01T09:56:49.192Z,1000.22
2017-07-01T09:57:49.217Z,1000.2
2017-07-01T09:58:49.250Z,1000.18
2017-07-01T09:59:49.274Z,1000.21
2017-07-01T10:00:49.305Z,1000.18
2017-07-01T10:01:49.332Z,1000.22
2017-07-01T10:02:49.356Z,1000.17
2017-07-01T10:04:49.412Z,1000.21
2017-07-01T10:05:49.436Z,1000.19
2017-07-01T10:06:49.463Z,1000.22
2017-07-01T10:07:49.492Z,1000.29
2017-07-01T10:08:49.518Z,1000.28
2017-07-01T10:09:49.547Z,1000.3
2017-07-01T10:10:49.574Z,1000.32
2017-07-01T10:11:49.598Z,1000.3
2017-07-01T10:12:49.622Z,1000.37
2017-07-01T10:13:49.651Z,1000.27
2017-07-01T10:14:49.680Z,1000.23
2017-07-01T10:15:49.704Z,1000.25
2017-07-01T10:16:49.735Z,1000.31
2017-07-01T10:17:49.757Z,1000.28
2017-07-01T10:18:49.787Z,1000.24
2017-07-01T10:20:49.839Z,1000.22
2017-07-01T10:21:49.864Z,1000.24
2017-07-01T10:22:49.895Z,1000.26
2017-07-01T10:23:49.917Z,1000.27
2017-07-01T10:24:49.948Z,1000.21
2017-07-01T10:25:49.972Z,1000.28
2017-07-01T10:26:50.002Z,1000.28
2017-07-01T10:27:50.028Z,1000.3
2017-07-01T10:28:50.055Z,1000.3
2017-07-01T10:29:50.082Z,1000.38
2017-07-01T10:30:50.107Z,1000.43
2017-07-01T10:31:50.134Z,1000.49
2017-07-01T10:32:50.158Z,1000.59
2017-07-01T10:33:50.188Z,1000.66
2017-07-01T10:34:50.212Z,1000.71
2017-07-01T10:36:50.264Z,1000.85
2017-07-01T10:37:50.293Z,1000.84
2017-07-01T10:38:50.318Z,1000.8
2017-07-01T10:39:50.341Z,1000.87
2017-07-01T10:40:50.373Z,1000.86
2017-07-01T10:41:50.397Z,1000.98
2017-07-01T10:42:50.421Z,1000.92
2017-07-01T10:43:50.451Z,1000.9
2017-07-01T10:44:50.474Z,1000.97
2017-07-01T10:45:50.499Z,1000.94
2017-07-01T10:46:50.522Z,1000.96
2017-07-01T10:47:50.552Z,1000.9
2017-07-01T10:48:50.574Z,1001.01
2017-07-01T10:49:50.603Z,1001.03
2017-07-01T10:51:50.656Z,1001.02
2017-07-01T10:52:50.681Z,1001.07
2017-07-01T10:53:50.705Z,1001.03
2017-07-01T10:54:50.728Z,1001.05
2017-07-01T10:55:50.757Z,1001.06
2017-07-01T10:56:50.783Z,1001
2017-07-01T10:57:50.805Z,1000.98
2017-07-01T10:58:50.834Z,1000.99
2017-07-01T10:59:50.857Z,1000.94
2017-07-01T11:00:50.888Z,1000.95
2017-07-01T11:01:50.911Z,1000.95
2017-07-01T11:02:50.933Z,1000.96
2017-07-01T11:03:50.965Z,1001.01
2017-07-01T11:04:50.988Z,1000.94
2017-07-01T11:05:51.016Z,1000.96
2017-07-01T11:06:51.035Z,1000.99
2017-07-01T11:07:51.062Z,1000.9
2017-07-01T11:08:51.086Z,1000.96
2017-07-01T11:09:51.114Z,1000.95
2017-07-01T11:10:51.144Z,1001
2017-07-01T11:11:51.167Z,1001.01
2017-07-01T11:12:51.192Z,1001.06
2017-07-01T11:13:51.215Z,1001.05
2017-07-01T11:14:51.244Z,1001.03
2017-07-01T11:15:51.267Z,1001.02
2017-07-01T11:16:51.296Z,1000.97
2017-07-01T11:17:51.324Z,1001
2017-07-01T11:18:51.344Z,1001.04
2017-07-01T11:19:51.373Z,1001.06
2017-07-01T11:20:51.400Z,1001.03
2017-07-01T11:21:51.424Z,1001.08
2017-07-01T11:23:51.479Z,1001
2017-07-01T11:24:51.505Z,1001.09
2017-07-01T11:25:51.530Z,1001.02
2017-07-01T11:26:51.555Z,1001.08
2017-07-01T11:27:51.585Z,1001.06
2017-07-01T11:28:51.652Z,1001.02
2017-07-01T11:29:51.638Z,1000.94
2017-07-01T11:30:51.665Z,1001.01
2017-07-01T11:31:51.694Z,1000.96
2017-07-01T11:32:51.716Z,1000.96
2017-07-01T11:33:51.745Z,1001.02
2017-07-01T11:34:51.769Z,1000.98
2017-07-01T11:35:51.799Z,1001.04
2017-07-01T11:36:51.826Z,1000.93
2017-07-01T11:37:51.852Z,1000.96
2017-07-01T11:39:51.904Z,1000.97
2017-07-01T11:40:51.931Z,1000.95
2017-07-01T11:41:51.959Z,1000.95
2017-07-01T11:42:51.989Z,1000.89
2017-07-01T11:43:52.014Z,1000.98
2017-07-01T11:44:52.043Z,1000.91
2017-07-01T11:45:52.071Z,1000.86
2017-07-01T11:46:52.100Z,1000.94
2017-07-01T11:47:52.121Z,1000.96
2017-07-01T11:48:52.155Z,1000.9
2017-07-01T11:49:52.180Z,1000.95
2017-07-01T11:50:52.208Z,1000.97
2017-07-01T11:51:52.234Z,1000.9
2017-07-01T11:52:52.262Z,1000.88
2017-07-01T11:53:52.289Z,1000.94
2017-07-01T11:55:52.343Z,1000.9
2017-07-01T11:56:52.374Z,1000.87
2017-07-01T11:57:52.398Z,1000.9
2017-07-01T11:58:52.427Z,1000.9
2017-07-01T11:59:52.454Z,1000.89
2017-07-01T12:00:52.479Z,1000.83
2017-07-01T12:01:52.510Z,1000.87
2017-07-01T12:02:52.536Z,1000.88
2017-07-01T12:03:52.564Z,1000.85
2017-07-01T12:04:52.592Z,1000.81
2017-07-01T12:05:52.615Z,1000.86
2017-07-01T12:06:52.648Z,1000.84
2017-07-01T12:07:52.671Z,1000.84
2017-07-01T12:08:52.701Z,1000.77
2017-07-01T12:09:52.724Z,1000.82
2017-07-01T12:11:52.779Z,1000.85
2017-07-01T12:12:52.810Z,1000.85
2017-07-01T12:13:52.837Z,1000.86
2017-07-01T12:14:52.865Z,1000.82
2017-07-01T12:15:52.891Z,1000.81
2017-07-01T12:16:52.917Z,1000.85
2017-07-01T12:17:52.947Z,1000.83
2017-07-01T12:18:52.971Z,1000.7
2017-07-01T12:19:53.002Z,1000.76
2017-07-01T12:20:53.028Z,1000.72
2017-07-01T12:21:53.054Z,1000.76
2017-07-01T12:22:53.082Z,1000.76
2017-07-01T12:23:53.118Z,1000.76
2017-07-01T12:24:53.133Z,1000.72
2017-07-01T12:26:53.191Z,1000.76
2017-07-01T12:27:53.219Z,1000.81
2017-07-01T12:28:53.244Z,1000.73
2017-07-01T12:29:53.271Z,1000.79
2017-07-01T12:30:53.294Z,1000.76
2017-07-01T12:31:53.323Z,1000.85
2017-07-01T12:32:53.352Z,1000.84
2017-07-01T12:33:53.379Z,1000.84
2017-07-01T12:34:53.402Z,1000.72
2017-07-01T12:35:53.425Z,1000.8
2017-07-01T12:36:53.455Z,1000.84
2017-07-01T12:37:53.480Z,1000.88
2017-07-01T12:38:53.508Z,1000.95
2017-07-01T12:39:53.533Z,1000.93
2017-07-01T12:40:53.557Z,1001.15
2017-07-01T12:41:53.585Z,1001.11
2017-07-01T12:42:53.610Z,1000.95
2017-07-01T12:43:53.635Z,1000.86
2017-07-01T12:44:53.667Z,1000.96
2017-07-01T12:45:53.685Z,1000.95
2017-07-01T12:46:53.714Z,1000.98
2017-07-01T12:47:53.737Z,1000.95
2017-07-01T12:48:53.764Z,1001.01
2017-07-01T12:49:53.790Z,1000.96
2017-07-01T12:50:53.818Z,1000.91
2017-07-01T12:51:53.838Z,1000.98
2017-07-01T12:52:53.867Z,1001.02
2017-07-01T12:53:53.894Z,1000.91
2017-07-01T12:54:53.917Z,1001
2017-07-01T12:55:53.950Z,1000.98
2017-07-01T12:56:53.968Z,1001.05
2017-07-01T12:58:54.017Z,1001.07
2017-07-01T12:59:54.046Z,1001.09
2017-07-01T13:00:54.069Z,1001.05